createdAt,value
2019-04-11T00:01:00.382Z,13.60
2019-04-11T00:03:29.302Z,13.67
2019-04-11T00:05:57.776Z,13.03
2019-04-11T00:08:26.213Z,12.77
2019-04-11T00:10:55.559Z,13.60
2019-04-11T00:13:27.076Z,13.27
2019-04-11T00:15:54.993Z,14.30
2019-04-11T00:18:23.545Z,13.33
2019-04-11T00:20:52.728Z,13.43
2019-04-11T00:23:21.791Z,13.70
2019-04-11T00:25:50.330Z,13.20
2019-04-11T00:28:18.758Z,12.77
2019-04-11T00:30:48.287Z,12.87
2019-04-11T00:33:18.115Z,12.73
2019-04-11T00:35:46.708Z,12.53
2019-04-11T00:38:16.014Z,12.50
2019-04-11T00:40:45.758Z,12.13
2019-04-11T00:43:26.764Z,13.27
2019-04-11T00:45:45.564Z,12.27
2019-04-11T00:48:14.437Z,12.87
2019-04-11T00:50:43.347Z,12.33
2019-04-11T00:53:11.942Z,11.67
2019-04-11T00:55:40.375Z,11.43
2019-04-11T00:58:09.618Z,12.07
2019-04-11T01:00:39.659Z,12.47
2019-04-11T01:03:09.611Z,12.00
2019-04-11T01:05:39.350Z,11.37
2019-04-11T01:08:07.931Z,11.87
2019-04-11T01:10:36.526Z,11.60
2019-04-11T01:13:05.135Z,11.83
2019-04-11T01:15:33.665Z,11.90
2019-04-11T01:18:02.120Z,12.17
2019-04-11T01:20:31.398Z,12.10
2019-04-11T01:23:00.225Z,11.47
2019-04-11T01:25:30.664Z,11.03
2019-04-11T01:28:00.469Z,11.60
2019-04-11T01:30:33.246Z,11.27
2019-04-11T01:33:02.509Z,11.73
2019-04-11T01:35:31.126Z,11.73
2019-04-11T01:37:59.867Z,10.07
2019-04-11T01:40:28.391Z,11.00
2019-04-11T01:42:57.639Z,11.30
2019-04-11T01:45:27.543Z,10.87
2019-04-11T01:48:10.937Z,10.57
2019-04-11T01:50:39.666Z,10.67
2019-04-11T01:53:08.906Z,10.03
2019-04-11T01:55:38.695Z,10.47
2019-04-11T01:58:07.313Z,10.60
2019-04-11T02:00:42.022Z,10.67
2019-04-11T02:03:12.304Z,10.77
2019-04-11T02:05:41.167Z,10.63
2019-04-11T02:08:09.746Z,10.43
2019-04-11T02:10:39.125Z,10.80
2019-04-11T02:13:07.918Z,10.57
2019-04-11T02:15:36.684Z,10.37
2019-04-11T02:18:05.483Z,9.80
2019-04-11T02:20:33.978Z,9.67
2019-04-11T02:23:10.896Z,10.60
2019-04-11T02:25:41.144Z,10.43
2019-04-11T02:28:10.734Z,10.60
2019-04-11T02:30:41.969Z,10.43
2019-04-11T02:33:12.188Z,10.07
2019-04-11T02:35:42.792Z,10.33
2019-04-11T02:38:12.636Z,10.60
2019-04-11T02:40:43.161Z,11.00
2019-04-11T02:43:13.299Z,10.53
2019-04-11T02:45:54.607Z,10.43
2019-04-11T02:48:13.766Z,9.93
2019-04-11T02:50:43.610Z,10.70
2019-04-11T02:53:12.653Z,10.40
2019-04-11T02:55:43.736Z,10.63
2019-04-11T02:58:12.592Z,9.63
2019-04-11T03:00:42.273Z,10.17
2019-04-11T03:03:12.871Z,10.27
2019-04-11T03:05:41.885Z,9.67
2019-04-11T03:08:31.883Z,10.27
2019-04-11T03:11:01.714Z,10.17
2019-04-11T03:13:30.409Z,10.60
2019-04-11T03:16:11.323Z,9.70
2019-04-11T03:18:46.126Z,11.10
2019-04-11T03:21:06.085Z,10.47
2019-04-11T03:23:31.207Z,10.30
2019-04-11T03:26:00.629Z,10.27
2019-04-11T03:28:31.437Z,9.60
2019-04-11T03:31:32.694Z,9.93
2019-04-11T03:36:50.714Z,10.40
2019-04-11T03:38:52.976Z,10.80
2019-04-11T03:41:22.295Z,10.63
2019-04-11T03:43:43.724Z,10.23
2019-04-11T03:46:22.924Z,11.00
2019-04-11T03:48:44.997Z,10.77
2019-04-11T03:51:04.111Z,10.50
2019-04-11T03:53:34.298Z,11.00
2019-04-11T03:56:04.550Z,10.77
2019-04-11T03:58:33.599Z,11.40
2019-04-11T04:01:05.503Z,10.33
2019-04-11T04:03:34.153Z,11.00
2019-04-11T04:06:04.484Z,11.17
2019-04-11T04:08:34.278Z,11.43
2019-04-11T04:11:06.152Z,11.03
2019-04-11T04:13:36.892Z,11.40
2019-04-11T04:16:56.558Z,11.10
2019-04-11T04:19:30.385Z,11.10
2019-04-11T04:22:03.200Z,10.47
2019-04-11T04:24:37.803Z,10.50
2019-04-11T04:27:05.220Z,11.60
2019-04-11T04:29:36.942Z,11.00
2019-04-11T04:32:05.499Z,11.87
2019-04-11T04:34:58.318Z,11.63
2019-04-11T04:37:26.677Z,11.47
2019-04-11T04:40:13.594Z,12.20
2019-04-11T04:42:32.209Z,12.47
2019-04-11T04:44:58.142Z,11.73
2019-04-11T04:47:37.202Z,11.97
2019-04-11T04:49:57.146Z,11.47
2019-04-11T04:52:28.061Z,12.10
2019-04-11T04:54:57.733Z,12.03
2019-04-11T04:57:26.800Z,12.27
2019-04-11T04:59:55.629Z,11.93
2019-04-11T05:02:25.999Z,12.70
2019-04-11T05:04:54.494Z,12.67
2019-04-11T05:07:23.602Z,12.33
2019-04-11T05:09:52.362Z,12.13
2019-04-11T05:12:22.483Z,12.93
2019-04-11T05:14:52.010Z,12.50
2019-04-11T05:17:20.687Z,12.70
2019-04-11T05:19:49.172Z,12.13
2019-04-11T05:22:17.610Z,13.83
2019-04-11T05:24:46.034Z,12.77
2019-04-11T05:27:14.653Z,13.33
2019-04-11T05:29:43.892Z,12.00
2019-04-11T05:32:13.359Z,13.20
2019-04-11T05:34:43.513Z,13.50
2019-04-11T05:37:13.129Z,13.60
2019-04-11T05:39:42.454Z,13.07
2019-04-11T05:42:11.305Z,14.57
2019-04-11T05:44:40.721Z,13.50
2019-04-11T05:47:14.662Z,12.97
2019-04-11T05:49:47.724Z,13.40
2019-04-11T05:52:16.158Z,13.60
2019-04-11T05:54:47.993Z,13.63
2019-04-11T05:57:22.090Z,13.87
2019-04-11T05:59:52.089Z,13.73
2019-04-11T06:02:31.386Z,13.83
2019-04-11T06:05:11.069Z,13.60
2019-04-11T06:07:57.763Z,13.30
2019-04-11T06:10:28.307Z,13.10
2019-04-11T06:13:10.701Z,13.47
2019-04-11T06:15:42.766Z,13.23
2019-04-11T06:18:24.121Z,13.00
2019-04-11T06:20:53.643Z,14.23
2019-04-11T06:23:23.806Z,13.50
2019-04-11T06:26:08.743Z,12.97
2019-04-11T06:28:36.347Z,13.37
2019-04-11T06:31:18.743Z,13.73
2019-04-11T06:33:49.051Z,13.90
2019-04-11T06:36:19.164Z,13.27
2019-04-11T06:38:49.374Z,12.20
2019-04-11T06:41:26.351Z,12.57
2019-04-11T06:44:12.774Z,12.67
2019-04-11T06:47:00.635Z,13.27
2019-04-11T06:49:42.857Z,11.97
2019-04-11T06:52:12.921Z,11.40
2019-04-11T06:54:59.467Z,11.93
2019-04-11T06:57:29.992Z,11.63
2019-04-11T07:00:00.883Z,11.80
2019-04-11T07:02:32.067Z,12.40
2019-04-11T07:05:04.990Z,12.47
2019-04-11T07:07:35.676Z,11.90
2019-04-11T07:10:06.300Z,11.90
2019-04-11T07:12:49.373Z,11.97
2019-04-11T07:15:23.088Z,11.67
2019-04-11T07:18:09.905Z,11.97
2019-04-11T07:20:56.396Z,12.43
2019-04-11T07:23:44.529Z,11.67
2019-04-11T07:26:18.797Z,12.10
2019-04-11T07:28:58.602Z,11.73
2019-04-11T07:31:40.971Z,12.30
2019-04-11T07:34:33.028Z,13.20
2019-04-11T07:37:17.014Z,12.30
2019-04-11T07:40:03.273Z,12.83
2019-04-11T07:42:51.819Z,11.83
2019-04-11T07:45:27.649Z,12.40
2019-04-11T07:48:03.640Z,12.80
2019-04-11T07:50:33.278Z,12.53
2019-04-11T07:53:06.563Z,12.43
2019-04-11T07:55:36.531Z,12.50
2019-04-11T07:58:22.043Z,11.97
2019-04-11T08:01:08.629Z,11.57
2019-04-11T08:03:51.301Z,11.73
2019-04-11T08:07:10.901Z,10.60
2019-04-11T08:09:43.892Z,11.33
2019-04-11T08:12:15.000Z,10.90
2019-04-11T08:14:55.084Z,11.63
2019-04-11T08:17:35.522Z,10.97
2019-04-11T08:20:17.223Z,11.07
2019-04-11T08:22:47.608Z,10.80
2019-04-11T08:25:33.507Z,10.07
2019-04-11T08:28:12.371Z,10.93
2019-04-11T08:30:41.575Z,10.80
2019-04-11T08:33:10.791Z,11.03
2019-04-11T08:35:42.034Z,10.30
2019-04-11T08:38:24.761Z,10.13
2019-04-11T08:40:55.468Z,10.13
2019-04-11T08:43:28.910Z,10.50
2019-04-11T08:46:08.910Z,10.63
2019-04-11T08:48:42.772Z,10.30
2019-04-11T08:51:14.584Z,10.10
2019-04-11T08:53:47.215Z,10.60
2019-04-11T08:56:16.858Z,11.03
2019-04-11T08:59:06.546Z,9.60
2019-04-11T09:01:36.001Z,10.50
2019-04-11T09:04:12.129Z,10.67
2019-04-11T09:06:40.883Z,10.27
2019-04-11T09:09:18.702Z,10.77
2019-04-11T09:11:49.121Z,10.53
2019-04-11T09:15:12.709Z,10.67
2019-04-11T09:17:54.952Z,10.93
2019-04-11T09:20:21.398Z,11.00
2019-04-11T09:22:51.649Z,10.63
2019-04-11T09:25:28.983Z,11.50
2019-04-11T09:28:17.641Z,11.27
2019-04-11T09:30:50.438Z,12.10
2019-04-11T09:33:38.028Z,11.00
2019-04-11T09:36:26.067Z,10.77
2019-04-11T09:39:08.209Z,10.97
2019-04-11T09:41:54.594Z,9.90
2019-04-11T09:44:30.955Z,11.77
2019-04-11T09:47:17.828Z,11.10
2019-04-11T09:49:47.904Z,11.27
2019-04-11T09:52:18.030Z,10.97
2019-04-11T09:54:54.695Z,12.10
2019-04-11T09:57:24.997Z,11.30
2019-04-11T09:59:56.046Z,11.83
2019-04-11T10:02:27.437Z,11.47
2019-04-11T10:04:59.916Z,11.13
2019-04-11T10:07:30.114Z,11.77
2019-04-11T10:10:04.604Z,10.83
2019-04-11T10:12:44.630Z,11.33
2019-04-11T10:15:13.658Z,11.83
2019-04-11T10:18:01.017Z,11.17
2019-04-11T10:20:30.732Z,11.03
2019-04-11T10:23:04.984Z,12.07
2019-04-11T10:25:35.295Z,11.47
2019-04-11T10:28:21.920Z,12.40
2019-04-11T10:30:51.997Z,11.27
2019-04-11T10:34:14.224Z,12.70
2019-04-11T10:36:45.355Z,12.57
2019-04-11T10:39:15.574Z,11.63
2019-04-11T10:41:49.122Z,11.90
2019-04-11T10:44:23.532Z,11.83
2019-04-11T10:46:53.769Z,12.20
2019-04-11T10:49:30.364Z,12.10
2019-04-11T10:52:04.368Z,12.43
2019-04-11T10:54:34.361Z,12.23
2019-04-11T10:57:05.618Z,12.20
2019-04-11T10:59:44.949Z,11.90
2019-04-11T11:02:33.633Z,12.13
2019-04-11T11:05:03.189Z,11.97
2019-04-11T11:07:32.945Z,10.60
2019-04-11T11:10:07.169Z,11.40
2019-04-11T11:12:53.773Z,12.47
2019-04-11T11:15:25.042Z,12.50
2019-04-11T11:18:39.905Z,12.67
2019-04-11T11:20:51.310Z,11.23
2019-04-11T11:23:32.983Z,11.80
2019-04-11T11:26:20.886Z,12.10
2019-04-11T11:28:47.073Z,11.50
2019-04-11T11:31:32.495Z,11.53
2019-04-11T11:34:00.946Z,11.27
2019-04-11T11:36:50.136Z,13.77
2019-04-11T11:39:33.476Z,12.67
2019-04-11T11:42:22.127Z,12.73
2019-04-11T11:44:53.103Z,11.60
2019-04-11T11:47:41.430Z,11.07
2019-04-11T11:50:18.389Z,11.17
2019-04-11T11:53:08.152Z,12.43
2019-04-11T11:55:41.279Z,13.33
2019-04-11T11:58:23.741Z,11.23
2019-04-11T12:00:55.636Z,11.33
2019-04-11T12:03:42.434Z,11.03
2019-04-11T12:06:11.050Z,11.77
2019-04-11T12:08:51.321Z,11.43
2019-04-11T12:11:21.875Z,11.30
2019-04-11T12:14:09.733Z,10.97
2019-04-11T12:17:00.023Z,10.57
2019-04-11T12:19:52.363Z,10.90
2019-04-11T12:22:36.799Z,10.20
2019-04-11T12:25:14.533Z,10.50
2019-04-11T12:27:56.366Z,10.50
2019-04-11T12:30:36.007Z,9.47
2019-04-11T12:33:17.312Z,10.40
2019-04-11T12:35:48.541Z,10.07
2019-04-11T12:38:25.245Z,10.63
2019-04-11T12:41:10.705Z,9.47
2019-04-11T12:43:46.270Z,10.03
2019-04-11T12:46:32.619Z,9.53
2019-04-11T12:49:02.814Z,9.37
2019-04-11T12:51:38.962Z,9.07
2019-04-11T12:54:07.473Z,9.70
2019-04-11T12:56:46.554Z,9.73
2019-04-11T12:59:15.146Z,9.80
2019-04-11T13:01:45.221Z,10.03
2019-04-11T13:04:21.082Z,9.87
2019-04-11T13:06:54.376Z,10.10
2019-04-11T13:09:24.446Z,9.60
2019-04-11T13:12:06.456Z,9.43
2019-04-11T13:14:42.248Z,10.13
2019-04-11T13:17:28.465Z,9.00
2019-04-11T13:20:14.975Z,8.37
2019-04-11T13:22:43.393Z,9.13
2019-04-11T13:25:25.988Z,8.90
2019-04-11T13:27:56.061Z,9.10
2019-04-11T13:30:42.823Z,9.23
2019-04-11T13:33:13.261Z,8.83
2019-04-11T13:36:01.614Z,8.57
2019-04-11T13:38:31.685Z,9.40
2019-04-11T13:41:20.151Z,9.00
2019-04-11T13:43:49.489Z,9.90
2019-04-11T13:46:28.572Z,9.07
2019-04-11T13:48:58.645Z,9.27
2019-04-11T13:51:31.430Z,8.57
2019-04-11T13:54:14.367Z,8.10
2019-04-11T13:57:00.930Z,8.77
2019-04-11T13:59:36.900Z,9.23
2019-04-11T14:02:16.036Z,8.50
2019-04-11T14:04:55.215Z,8.97
2019-04-11T14:07:27.272Z,8.67
2019-04-11T14:09:56.477Z,8.83
2019-04-11T14:12:26.254Z,9.50
2019-04-11T14:14:56.173Z,9.13
2019-04-11T14:17:45.268Z,9.77
2019-04-11T14:20:29.540Z,9.40
2019-04-11T14:23:05.751Z,9.10
2019-04-11T14:25:36.082Z,9.87
2019-04-11T14:28:08.172Z,10.07
2019-04-11T14:30:52.469Z,10.57
2019-04-11T14:33:23.609Z,9.27
2019-04-11T14:36:09.477Z,9.60
2019-04-11T14:38:46.597Z,10.03
2019-04-11T14:41:17.282Z,9.00
2019-04-11T14:43:53.124Z,9.37
2019-04-11T14:46:39.143Z,9.13
2019-04-11T14:49:10.172Z,9.70
2019-04-11T14:51:58.260Z,9.57
2019-04-11T14:54:39.806Z,9.33
2019-04-11T14:57:12.890Z,9.07
2019-04-11T14:59:46.061Z,9.40
2019-04-11T15:02:16.140Z,8.83
2019-04-11T15:04:49.172Z,8.67
2019-04-11T15:07:19.292Z,8.53
2019-04-11T15:09:58.542Z,9.50
2019-04-11T15:12:40.106Z,8.97
2019-04-11T15:15:10.415Z,8.73
2019-04-11T15:17:40.494Z,8.70
2019-04-11T15:20:22.880Z,8.17
2019-04-11T15:23:02.137Z,8.73
2019-04-11T15:25:44.195Z,8.40
2019-04-11T15:28:20.010Z,8.43
2019-04-11T15:30:58.834Z,8.27
2019-04-11T15:33:45.390Z,8.17
2019-04-11T15:36:15.483Z,7.13
2019-04-11T15:38:51.231Z,7.97
2019-04-11T15:41:21.619Z,8.07
2019-04-11T15:44:06.822Z,8.07
2019-04-11T15:46:36.906Z,7.80
2019-04-11T15:49:30.025Z,8.30
2019-04-11T15:51:54.926Z,7.30
2019-04-11T15:54:41.090Z,7.57
2019-04-11T15:57:12.689Z,8.10
2019-04-11T15:59:55.002Z,7.63
2019-04-11T16:02:41.626Z,7.47
2019-04-11T16:05:11.768Z,7.10
2019-04-11T16:07:41.922Z,7.57
2019-04-11T16:10:11.919Z,7.87
2019-04-11T16:12:45.213Z,7.03
2019-04-11T16:15:17.305Z,7.60
2019-04-11T16:18:01.420Z,7.67
2019-04-11T16:20:29.834Z,7.67
2019-04-11T16:23:16.290Z,7.10
2019-04-11T16:25:46.491Z,8.93
2019-04-11T16:28:28.953Z,9.00
2019-04-11T16:30:58.335Z,7.60
2019-04-11T16:33:46.168Z,7.83
2019-04-11T16:36:16.444Z,7.00
2019-04-11T16:38:49.366Z,7.47
2019-04-11T16:41:35.248Z,7.30
2019-04-11T16:44:18.439Z,7.00
2019-04-11T16:46:55.520Z,7.17
2019-04-11T16:49:25.945Z,7.00
2019-04-11T16:51:54.386Z,6.83
2019-04-11T16:54:22.826Z,6.80
2019-04-11T16:56:51.290Z,6.13
2019-04-11T16:59:20.087Z,6.80
2019-04-11T17:01:53.355Z,7.60
2019-04-11T17:04:19.210Z,6.43
2019-04-11T17:06:49.261Z,7.00
2019-04-11T17:09:22.057Z,6.47
2019-04-11T17:11:50.501Z,6.40
2019-04-11T17:14:27.685Z,7.27
2019-04-11T17:16:50.183Z,6.03
2019-04-11T17:19:18.643Z,6.33
2019-04-11T17:21:48.397Z,6.53
2019-04-11T17:24:17.515Z,6.30
2019-04-11T17:26:46.937Z,6.40
2019-04-11T17:29:15.355Z,6.77
2019-04-11T17:31:43.779Z,6.93
2019-04-11T17:34:12.212Z,6.57
2019-04-11T17:36:40.651Z,5.73
2019-04-11T17:39:09.088Z,6.33
2019-04-11T17:41:37.513Z,5.43
2019-04-11T17:44:05.954Z,6.30
2019-04-11T17:46:34.395Z,6.90
2019-04-11T17:49:02.837Z,8.43
2019-04-11T17:51:34.407Z,6.40
2019-04-11T17:54:01.556Z,6.37
2019-04-11T17:56:30.036Z,6.93
2019-04-11T17:58:58.744Z,6.27
2019-04-11T18:01:27.375Z,6.00
2019-04-11T18:03:55.794Z,6.27
2019-04-11T18:06:24.283Z,6.20
2019-04-11T18:08:52.724Z,6.93
2019-04-11T18:11:21.517Z,6.37
2019-04-11T18:13:49.953Z,6.57
2019-04-11T18:16:19.328Z,7.00
2019-04-11T18:18:47.760Z,6.23
2019-04-11T18:21:16.184Z,6.30
2019-04-11T18:23:44.681Z,7.70
2019-04-11T18:26:13.174Z,6.60
2019-04-11T18:28:41.697Z,7.17
2019-04-11T18:31:10.110Z,7.03
2019-04-11T18:33:38.536Z,7.20
2019-04-11T18:36:07.109Z,7.13
2019-04-11T18:38:35.534Z,7.20
2019-04-11T18:41:04.022Z,6.83
2019-04-11T18:43:32.572Z,7.33
2019-04-11T18:46:01.083Z,7.53
2019-04-11T18:48:29.636Z,7.83
2019-04-11T18:50:58.137Z,7.80
2019-04-11T18:53:26.615Z,7.67
2019-04-11T18:55:55.028Z,8.03
2019-04-11T18:58:23.484Z,8.20
2019-04-11T19:00:51.914Z,8.13
2019-04-11T19:03:20.402Z,7.80
2019-04-11T19:05:48.860Z,7.53
2019-04-11T19:08:17.294Z,8.07
2019-04-11T19:10:46.098Z,8.10
2019-04-11T19:13:16.921Z,8.30
2019-04-11T19:15:45.709Z,8.13
2019-04-11T19:18:24.764Z,8.40
2019-04-11T19:20:53.194Z,8.30
2019-04-11T19:23:21.878Z,8.50
2019-04-11T19:25:50.299Z,8.33
2019-04-11T19:28:18.719Z,8.87
2019-04-11T19:30:47.177Z,8.57
2019-04-11T19:33:15.578Z,7.93
2019-04-11T19:35:44.014Z,8.53
2019-04-11T19:38:17.652Z,8.00
2019-04-11T19:40:47.001Z,8.63
2019-04-11T19:43:18.902Z,8.67
2019-04-11T19:45:49.786Z,8.57
2019-04-11T19:48:16.042Z,8.50
2019-04-11T19:50:44.610Z,7.97
2019-04-11T19:53:13.038Z,8.13
2019-04-11T19:55:52.043Z,9.37
2019-04-11T19:58:21.173Z,8.87
2019-04-11T20:00:53.249Z,8.23
2019-04-11T20:03:21.855Z,8.43
2019-04-11T20:05:49.930Z,8.97
2019-04-11T20:08:18.420Z,8.50
2019-04-11T20:10:46.840Z,8.87
2019-04-11T20:13:15.279Z,8.43
2019-04-11T20:15:43.718Z,9.37
2019-04-11T20:18:12.157Z,8.60
2019-04-11T20:20:40.585Z,8.53
2019-04-11T20:23:11.726Z,8.33
2019-04-11T20:25:39.146Z,8.77
2019-04-11T20:28:07.583Z,8.80
2019-04-11T20:30:36.014Z,8.13
2019-04-11T20:33:04.672Z,8.37
2019-04-11T20:35:33.104Z,8.23
2019-04-11T20:38:01.515Z,7.87
2019-04-11T20:40:29.945Z,8.57
2019-04-11T20:42:59.998Z,8.77
2019-04-11T20:45:30.074Z,8.30
2019-04-11T20:48:00.372Z,9.67
2019-04-11T20:50:28.658Z,8.80
2019-04-11T20:53:12.078Z,8.03
2019-04-11T20:55:32.993Z,8.10
2019-04-11T20:58:01.484Z,9.10
2019-04-11T21:00:29.912Z,8.23
2019-04-11T21:02:58.980Z,10.03
2019-04-11T21:05:30.499Z,8.43
2019-04-11T21:08:02.570Z,8.90
2019-04-11T21:10:27.862Z,7.87
2019-04-11T21:12:56.294Z,8.33
2019-04-11T21:15:24.714Z,8.27
2019-04-11T21:17:53.619Z,8.03
2019-04-11T21:20:23.945Z,8.43
2019-04-11T21:22:54.031Z,7.97
2019-04-11T21:25:23.085Z,8.33
2019-04-11T21:27:51.511Z,8.63
2019-04-11T21:30:20.006Z,8.60
2019-04-11T21:32:48.432Z,8.07
2019-04-11T21:35:16.868Z,8.63
2019-04-11T21:37:45.368Z,9.00
2019-04-11T21:40:13.860Z,8.53
2019-04-11T21:42:42.295Z,8.57
2019-04-11T21:45:10.889Z,8.30
2019-04-11T21:47:39.340Z,8.93
2019-04-11T21:50:09.408Z,8.63
2019-04-11T21:52:38.355Z,8.77
2019-04-11T21:55:08.477Z,8.30
2019-04-11T21:57:38.830Z,8.33
2019-04-11T22:00:12.834Z,8.93
2019-04-11T22:02:41.428Z,8.53
2019-04-11T22:05:09.843Z,8.47
2019-04-11T22:07:38.268Z,8.83
2019-04-11T22:10:08.292Z,8.23
2019-04-11T22:12:39.870Z,7.80
2019-04-11T22:15:11.702Z,8.00
2019-04-11T22:17:38.580Z,8.30
2019-04-11T22:20:07.270Z,8.80
2019-04-11T22:22:35.734Z,8.90
2019-04-11T22:25:06.102Z,8.43
2019-04-11T22:27:34.522Z,9.43
2019-04-11T22:30:03.701Z,8.73
2019-04-11T22:32:32.140Z,8.67
2019-04-11T22:35:00.553Z,8.53
2019-04-11T22:37:30.064Z,8.40
2019-04-11T22:40:01.739Z,8.43
2019-04-11T22:42:47.686Z,8.37
2019-04-11T22:45:16.095Z,8.17
2019-04-11T22:47:44.534Z,9.73
2019-04-11T22:50:14.185Z,8.83
2019-04-11T22:52:42.839Z,8.70
2019-04-11T22:55:11.859Z,8.73
2019-04-11T22:57:40.891Z,9.20
2019-04-11T23:00:14.902Z,8.97
2019-04-11T23:02:48.787Z,9.27
2019-04-11T23:05:17.938Z,8.83
2019-04-11T23:07:48.336Z,9.77
2019-04-11T23:10:17.639Z,9.73
2019-04-11T23:12:46.572Z,8.90
2019-04-11T23:15:16.504Z,9.17
2019-04-11T23:17:44.930Z,8.80
2019-04-11T23:20:15.188Z,8.67
2019-04-11T23:22:46.606Z,9.17
2019-04-11T23:25:15.025Z,9.67
2019-04-11T23:27:43.448Z,9.57
2019-04-11T23:30:13.369Z,9.17
2019-04-11T23:32:41.786Z,9.60
2019-04-11T23:35:10.223Z,8.43
2019-04-11T23:37:51.085Z,9.60
2019-04-11T23:40:22.203Z,8.77
2019-04-11T23:42:50.948Z,9.50
2019-04-11T23:45:21.390Z,9.97
2019-04-11T23:47:53.217Z,9.63
2019-04-11T23:50:20.095Z,9.53
2019-04-11T23:52:48.513Z,9.50
2019-04-11T23:55:16.948Z,9.40
2019-04-11T23:57:45.367Z,9.17
